This is the latest recevied weather packets stored in our database for station/object SR5NLK-1. If no packets are shown the sender has not sent any weather packets the latest 10 day(s).
| Time | Temp. | Humidity | Pressure | Rain* | Wind** | Luminosity | Snow |
|---|---|---|---|---|---|---|---|
| 1777785772 | 29.44° C | 29% | 1075.2 hPa | 0 mm | - | - | - |
| 1777785772 | 30° C | 28% | 1033.4 hPa | 0 mm | - | - | - |
| 1777785604 | 30° C | 28% | 1033.4 hPa | 0 mm | - | - | - |
| 1777785304 | 29.44° C | 29% | 1075.2 hPa | 0 mm | - | - | - |
| 1777785004 | 29.44° C | 29% | 1086.5 hPa | 0 mm | - | - | - |
| 1777784705 | 28.89° C | 30% | 1062.7 hPa | 0 mm | - | - | - |
| 1777784405 | 28.33° C | 31% | 1087.7 hPa | 0 mm | - | - | - |
| 1777784105 | 27.78° C | 33% | 999 hPa | 0 mm | - | - | - |
| 1777783804 | 26.67° C | 34% | 1027.1 hPa | 0 mm | - | - | - |
| 1777783505 | 26.11° C | 35% | 1084.7 hPa | 0 mm | - | - | - |
| 1777783324 | 25.56° C | 36% | 1090.9 hPa | 0 mm | - | - | - |
| 1777783205 | 25.56° C | 37% | 1033.4 hPa | 0 mm | - | - | - |
| 1777782905 | 25° C | 38% | 1041.6 hPa | 0 mm | - | - | - |
| 1777782604 | 23.89° C | 40% | 1084.8 hPa | 0 mm | - | - | - |
| 1777782305 | 22.78° C | 42% | 1051.9 hPa | 0 mm | - | - | - |
| 1777782005 | 21.11° C | 45% | 1087.8 hPa | 0 mm | - | - | - |
| 1777781705 | 20° C | 48% | 1081.5 hPa | 0 mm | - | - | - |
| 1777781405 | 18.89° C | 52% | 1075.2 hPa | 0 mm | - | - | - |
| 1777781344 | 18.89° C | 53% | 1033.4 hPa | 0 mm | - | - | - |
| 1777781105 | 17.78° C | 56% | 1086.8 hPa | 0 mm | - | - | - |
| 1777780805 | 15.56° C | 62% | 1049.1 hPa | 0 mm | - | - | - |
| 1777780505 | 13.89° C | 68% | 1039.7 hPa | 0 mm | - | - | - |
| 1777780205 | 12.22° C | 70% | 1030.3 hPa | 0 mm | - | - | - |
| 1777779905 | 10.56° C | 69% | 1043.1 hPa | 0 mm | - | - | - |
| 1777779605 | 9.44° C | 67% | 1072.3 hPa | 0 mm | - | - | - |
* Rain latest hour (hover to see other rain measurements)
** Current wind speed in m/s (hover to see current wind gust speed)